createdAt,value
2022-09-23T00:01:22.461Z,11.00
2022-09-23T00:03:50.278Z,10.40
2022-09-23T00:06:21.531Z,10.00
2022-09-23T00:08:50.239Z,9.80
2022-09-23T00:11:26.424Z,11.90
2022-09-23T00:13:56.884Z,12.80
2022-09-23T00:16:28.504Z,11.40
2022-09-23T00:18:56.902Z,10.30
2022-09-23T00:21:25.189Z,10.50
2022-09-23T00:23:53.667Z,11.20
2022-09-23T00:26:23.043Z,10.60
2022-09-23T00:28:51.780Z,11.10
2022-09-23T00:31:25.890Z,10.50
2022-09-23T00:33:59.291Z,11.80
2022-09-23T00:36:28.543Z,16.70
2022-09-23T00:38:56.223Z,14.30
2022-09-23T00:41:25.147Z,17.50
2022-09-23T00:43:56.668Z,20.60
2022-09-23T00:46:33.940Z,17.60
2022-09-23T00:49:06.526Z,13.70
2022-09-23T00:51:39.512Z,13.70
2022-09-23T00:54:07.919Z,10.90
2022-09-23T00:56:38.423Z,8.60
2022-09-23T00:59:09.684Z,8.90
2022-09-23T01:01:39.015Z,6.80
2022-09-23T01:04:07.968Z,7.80
2022-09-23T01:06:36.151Z,9.10
2022-09-23T01:09:04.311Z,9.60
2022-09-23T01:11:51.081Z,11.10
2022-09-23T01:14:48.700Z,9.10
2022-09-23T01:17:29.378Z,12.80
2022-09-23T01:20:29.010Z,10.20
2022-09-23T01:23:17.818Z,9.60
2022-09-23T01:26:08.006Z,12.50
2022-09-23T01:28:54.730Z,11.40
2022-09-23T01:31:42.860Z,11.50
2022-09-23T01:34:25.536Z,7.50
2022-09-23T01:37:03.282Z,8.20
2022-09-23T01:39:38.844Z,8.70
2022-09-23T01:42:10.596Z,8.90
2022-09-23T01:44:48.783Z,9.40
2022-09-23T01:47:22.784Z,8.20
2022-09-23T01:50:00.097Z,7.40
2022-09-23T01:52:35.922Z,8.60
2022-09-23T01:55:23.882Z,7.70
2022-09-23T01:58:08.373Z,8.10
2022-09-23T02:00:42.687Z,7.50
2022-09-23T02:03:47.243Z,7.80
2022-09-23T02:06:23.215Z,9.30
2022-09-23T02:09:02.819Z,7.70
2022-09-23T02:11:36.209Z,7.70
2022-09-23T02:14:27.558Z,6.90
2022-09-23T02:17:00.737Z,8.20
2022-09-23T02:19:55.524Z,10.30
2022-09-23T02:22:30.716Z,10.20
2022-09-23T02:24:58.805Z,8.40
2022-09-23T02:27:36.293Z,7.50
2022-09-23T02:30:12.025Z,6.60
2022-09-23T02:33:02.631Z,5.30
2022-09-23T02:35:53.228Z,5.00
2022-09-23T02:38:44.649Z,6.20
2022-09-23T02:41:32.615Z,6.20
2022-09-23T02:44:06.325Z,4.70
2022-09-23T02:46:35.456Z,6.70
2022-09-23T02:49:13.529Z,6.90
2022-09-23T02:51:41.603Z,7.10
2022-09-23T02:54:14.998Z,6.00
2022-09-23T02:56:42.947Z,5.30
2022-09-23T02:59:12.536Z,6.20
2022-09-23T03:01:56.592Z,6.50
2022-09-23T03:04:40.325Z,4.90
2022-09-23T03:07:33.562Z,5.40
2022-09-23T03:10:33.186Z,5.90
2022-09-23T03:13:14.714Z,5.40
2022-09-23T03:16:05.185Z,6.40
2022-09-23T03:18:42.693Z,5.50
2022-09-23T03:21:33.683Z,5.50
2022-09-23T03:24:06.905Z,8.40
2022-09-23T03:26:37.615Z,8.60
2022-09-23T03:29:11.357Z,6.20
2022-09-23T03:31:42.506Z,6.60
2022-09-23T03:34:16.235Z,6.60
2022-09-23T03:37:26.193Z,7.30
2022-09-23T03:40:13.748Z,9.50
2022-09-23T03:42:42.010Z,6.20
2022-09-23T03:45:18.430Z,6.20
2022-09-23T03:47:46.130Z,6.70
2022-09-23T03:50:14.110Z,5.90
2022-09-23T03:52:41.745Z,7.10
2022-09-23T03:55:11.379Z,7.80
2022-09-23T03:57:39.630Z,6.30
2022-09-23T04:00:08.008Z,5.80
2022-09-23T04:02:41.871Z,6.30
2022-09-23T04:05:11.487Z,6.20
2022-09-23T04:07:39.498Z,7.60
2022-09-23T04:10:08.034Z,7.10
2022-09-23T04:12:37.840Z,8.20
2022-09-23T04:15:06.452Z,7.30
2022-09-23T04:17:34.411Z,7.30
2022-09-23T04:20:02.535Z,6.20
2022-09-23T04:22:31.059Z,6.30
2022-09-23T04:24:58.738Z,6.70
2022-09-23T04:27:26.586Z,8.60
2022-09-23T04:29:54.324Z,7.50
2022-09-23T04:32:22.033Z,7.80
2022-09-23T04:34:49.747Z,7.70
2022-09-23T04:37:17.468Z,8.20
2022-09-23T04:39:45.148Z,8.30
2022-09-23T04:42:12.838Z,7.60
2022-09-23T04:44:40.692Z,8.10
2022-09-23T04:47:08.453Z,6.90
2022-09-23T04:49:36.177Z,8.00
2022-09-23T04:52:05.336Z,6.30
2022-09-23T04:54:33.116Z,6.00
2022-09-23T04:57:00.855Z,6.30
2022-09-23T04:59:28.648Z,8.10
2022-09-23T05:01:56.386Z,5.90
2022-09-23T05:04:24.585Z,6.50
2022-09-23T05:06:52.268Z,5.90
2022-09-23T05:09:20.030Z,7.40
2022-09-23T05:11:48.266Z,7.10
2022-09-23T05:14:16.057Z,7.30
2022-09-23T05:16:43.906Z,7.30
2022-09-23T05:19:13.598Z,7.80
2022-09-23T05:21:41.619Z,8.90
2022-09-23T05:24:09.863Z,8.10
2022-09-23T05:26:38.463Z,8.60
2022-09-23T05:29:06.548Z,10.10
2022-09-23T05:31:35.097Z,11.50
2022-09-23T05:34:05.211Z,10.70
2022-09-23T05:36:38.708Z,13.50
2022-09-23T05:39:08.748Z,11.10
2022-09-23T05:41:36.732Z,8.00
2022-09-23T05:44:05.027Z,8.40
2022-09-23T05:46:33.364Z,6.60
2022-09-23T05:49:03.623Z,5.00
2022-09-23T05:51:34.326Z,5.90
2022-09-23T05:54:04.412Z,5.10
2022-09-23T05:56:34.843Z,5.10
2022-09-23T05:59:04.071Z,5.50
2022-09-23T06:01:35.413Z,5.20
2022-09-23T06:04:05.786Z,5.70
2022-09-23T06:06:39.572Z,6.50
2022-09-23T06:09:11.702Z,6.50
2022-09-23T06:11:41.954Z,6.60
2022-09-23T06:14:12.859Z,6.80
2022-09-23T06:16:41.396Z,8.00
2022-09-23T06:19:10.495Z,7.50
2022-09-23T06:21:40.547Z,7.60
2022-09-23T06:24:21.308Z,8.20
2022-09-23T06:27:09.850Z,8.50
2022-09-23T06:29:40.130Z,8.20
2022-09-23T06:32:09.077Z,7.00
2022-09-23T06:34:51.555Z,7.80
2022-09-23T06:37:21.000Z,8.40
2022-09-23T06:39:54.890Z,10.00
2022-09-23T06:42:22.988Z,9.30
2022-09-23T06:44:52.648Z,9.80
2022-09-23T06:47:22.929Z,9.80
2022-09-23T06:49:51.557Z,10.20
2022-09-23T06:52:21.221Z,9.90
2022-09-23T06:54:49.115Z,11.00
2022-09-23T06:57:16.957Z,10.50
2022-09-23T06:59:44.906Z,10.80
2022-09-23T07:02:13.458Z,11.20
2022-09-23T07:04:41.549Z,10.20
2022-09-23T07:07:11.536Z,10.20
2022-09-23T07:09:39.539Z,11.10
2022-09-23T07:12:08.265Z,11.90
2022-09-23T07:14:36.191Z,12.10
2022-09-23T07:17:04.322Z,13.80
2022-09-23T07:19:32.523Z,11.10
2022-09-23T07:22:00.453Z,11.80
2022-09-23T07:24:28.330Z,11.10
2022-09-23T07:26:56.217Z,9.50
2022-09-23T07:29:24.052Z,9.80
2022-09-23T07:31:52.690Z,9.10
2022-09-23T07:34:21.922Z,10.10
2022-09-23T07:36:50.308Z,9.20
2022-09-23T07:39:18.197Z,8.80
2022-09-23T07:41:46.003Z,10.10
2022-09-23T07:44:13.884Z,10.60
2022-09-23T07:46:41.995Z,11.00
2022-09-23T07:49:10.691Z,10.40
2022-09-23T07:51:40.487Z,9.20
2022-09-23T07:54:13.052Z,9.20
2022-09-23T07:56:42.450Z,9.70
2022-09-23T07:59:18.079Z,10.50
2022-09-23T08:01:49.103Z,9.10
2022-09-23T08:04:26.849Z,9.40
2022-09-23T08:07:06.128Z,10.40
2022-09-23T08:09:41.633Z,9.40
2022-09-23T08:12:18.881Z,9.00
2022-09-23T08:14:46.726Z,11.60
2022-09-23T08:17:14.959Z,10.50
2022-09-23T08:19:42.816Z,10.30
2022-09-23T08:22:12.113Z,11.00
2022-09-23T08:24:39.945Z,8.70
2022-09-23T08:27:08.129Z,10.10
2022-09-23T08:29:36.019Z,11.80
2022-09-23T08:32:03.947Z,10.40
2022-09-23T08:34:31.776Z,17.20
2022-09-23T08:36:59.625Z,12.30
2022-09-23T08:39:27.489Z,12.40
2022-09-23T08:42:12.470Z,16.20
2022-09-23T08:44:58.997Z,9.90
2022-09-23T08:47:43.836Z,7.70
2022-09-23T08:50:18.147Z,10.30
2022-09-23T08:53:04.759Z,12.10
2022-09-23T08:55:50.856Z,10.20
2022-09-23T08:58:51.203Z,6.90
2022-09-23T09:01:41.554Z,6.90
2022-09-23T09:04:18.569Z,4.80
2022-09-23T09:10:09.149Z,5.40
2022-09-23T09:12:59.373Z,3.20
2022-09-23T09:15:28.542Z,2.60
2022-09-23T09:18:02.464Z,2.60
2022-09-23T09:20:35.035Z,2.40
2022-09-23T09:23:23.382Z,2.00
2022-09-23T09:25:54.443Z,2.10
2022-09-23T09:28:31.007Z,2.60
2022-09-23T09:31:26.847Z,2.00
2022-09-23T09:33:59.543Z,1.90
2022-09-23T09:36:38.357Z,9.10
2022-09-23T09:39:06.955Z,2.70
2022-09-23T09:41:35.003Z,3.30
2022-09-23T09:44:19.660Z,4.20
2022-09-23T09:47:20.919Z,3.40
2022-09-23T09:49:59.107Z,3.70
2022-09-23T09:52:29.711Z,2.20
2022-09-23T09:55:14.270Z,1.70
2022-09-23T09:57:52.325Z,2.00
2022-09-23T10:00:26.920Z,2.40
2022-09-23T10:03:04.651Z,2.30
2022-09-23T10:05:51.768Z,1.10
2022-09-23T10:08:37.918Z,1.20
2022-09-23T10:11:21.083Z,1.10
2022-09-23T10:14:26.480Z,1.60
2022-09-23T10:17:05.900Z,1.00
2022-09-23T10:19:41.984Z,0.80
2022-09-23T10:22:32.129Z,1.00
2022-09-23T10:25:07.608Z,1.30
2022-09-23T10:27:37.066Z,1.10
2022-09-23T10:30:21.843Z,1.60
2022-09-23T10:32:53.234Z,1.30
2022-09-23T10:35:24.462Z,0.90
2022-09-23T10:37:59.899Z,1.50
2022-09-23T10:44:11.560Z,2.00
2022-09-23T10:46:53.045Z,1.30
2022-09-23T10:49:35.817Z,1.30
2022-09-23T10:52:36.776Z,1.40
2022-09-23T10:55:29.064Z,4.50
2022-09-23T10:58:17.729Z,1.00
2022-09-23T11:00:52.271Z,1.80
2022-09-23T11:03:42.427Z,1.20
2022-09-23T11:06:21.106Z,1.20
2022-09-23T11:09:05.397Z,1.50
2022-09-23T11:12:02.227Z,1.20
2022-09-23T11:14:53.011Z,1.30
2022-09-23T11:17:39.561Z,0.90
2022-09-23T11:20:30.253Z,1.20
2022-09-23T11:23:37.913Z,1.30
2022-09-23T11:26:20.639Z,1.10
2022-09-23T11:29:20.372Z,1.30
2022-09-23T11:32:14.318Z,2.10
2022-09-23T11:37:22.141Z,1.60
2022-09-23T11:39:57.674Z,1.80
2022-09-23T11:42:32.231Z,1.00
2022-09-23T11:45:15.031Z,1.00
2022-09-23T11:47:50.382Z,1.00
2022-09-23T11:50:29.587Z,1.10
2022-09-23T11:53:36.813Z,1.40
2022-09-23T11:56:27.520Z,1.00
2022-09-23T11:59:39.678Z,1.20
2022-09-23T12:02:33.599Z,2.00
2022-09-23T12:05:09.559Z,1.80
2022-09-23T12:08:06.575Z,3.40
2022-09-23T12:10:55.923Z,1.10
2022-09-23T12:13:47.373Z,1.00
2022-09-23T12:16:37.335Z,1.10
2022-09-23T12:19:37.199Z,0.90
2022-09-23T12:22:24.065Z,1.20
2022-09-23T12:25:10.363Z,2.10
2022-09-23T12:27:45.607Z,0.90
2022-09-23T12:30:23.170Z,1.00
2022-09-23T12:32:51.320Z,0.70
2022-09-23T12:35:38.527Z,1.40
2022-09-23T12:38:38.331Z,0.90
2022-09-23T12:41:19.194Z,0.70
2022-09-23T12:44:21.136Z,1.10
2022-09-23T12:47:14.663Z,1.10
2022-09-23T12:49:43.720Z,0.70
2022-09-23T12:52:11.752Z,8.80
2022-09-23T12:54:41.402Z,1.20
2022-09-23T12:57:34.836Z,1.30
2022-09-23T13:00:12.879Z,1.10
2022-09-23T13:02:42.912Z,0.90
2022-09-23T13:05:36.564Z,1.10
2022-09-23T13:08:23.082Z,2.10
2022-09-23T13:11:00.182Z,6.30
2022-09-23T13:13:32.477Z,0.70
2022-09-23T13:16:16.391Z,0.90
2022-09-23T13:18:52.603Z,0.60
2022-09-23T13:21:42.103Z,0.90
2022-09-23T13:24:12.971Z,0.80
2022-09-23T13:26:46.644Z,2.00
2022-09-23T13:29:26.827Z,0.60
2022-09-23T13:31:58.143Z,0.80
2022-09-23T13:34:32.791Z,0.80
2022-09-23T13:37:37.911Z,0.70
2022-09-23T13:40:25.401Z,1.00
2022-09-23T13:43:03.175Z,1.30
2022-09-23T13:45:36.182Z,1.00
2022-09-23T13:48:15.221Z,1.30
2022-09-23T13:50:48.539Z,1.20
2022-09-23T13:53:23.276Z,1.10
2022-09-23T13:56:16.367Z,0.80
2022-09-23T13:58:44.289Z,0.80
2022-09-23T14:01:36.183Z,0.80
2022-09-23T14:04:04.130Z,0.80
2022-09-23T14:06:38.353Z,0.60
2022-09-23T14:09:06.644Z,1.30
2022-09-23T14:11:35.516Z,1.10
2022-09-23T14:14:08.115Z,0.70
2022-09-23T14:16:39.658Z,1.00
2022-09-23T14:19:17.517Z,1.00
2022-09-23T14:21:52.927Z,1.30
2022-09-23T14:24:30.903Z,0.80
2022-09-23T14:27:04.375Z,1.80
2022-09-23T14:29:44.154Z,1.10
2022-09-23T14:32:17.584Z,1.10
2022-09-23T14:35:02.685Z,1.10
2022-09-23T14:37:47.125Z,1.20
2022-09-23T14:40:21.541Z,1.20
2022-09-23T14:42:52.488Z,0.90
2022-09-23T14:45:24.714Z,1.50
2022-09-23T14:48:18.751Z,1.40
2022-09-23T14:53:22.745Z,2.00
2022-09-23T14:55:59.671Z,1.90
2022-09-23T14:58:28.746Z,1.30
2022-09-23T15:01:00.337Z,1.30
2022-09-23T15:03:28.928Z,2.30
2022-09-23T15:06:09.245Z,1.00
2022-09-23T15:08:37.244Z,1.10
2022-09-23T15:11:08.379Z,1.20
2022-09-23T15:13:44.230Z,1.20
2022-09-23T15:16:15.344Z,2.40
2022-09-23T15:18:46.366Z,1.40
2022-09-23T15:29:09.666Z,0.80
2022-09-23T15:31:37.700Z,1.50
2022-09-23T15:34:06.066Z,0.90
2022-09-23T15:36:34.917Z,1.30
2022-09-23T15:39:05.968Z,1.30
2022-09-23T15:41:34.180Z,4.20
2022-09-23T15:44:29.876Z,1.10
2022-09-23T15:47:01.204Z,1.50
2022-09-23T15:49:33.956Z,1.40
2022-09-23T15:52:04.140Z,1.60
2022-09-23T15:54:33.813Z,2.00
2022-09-23T15:57:02.088Z,1.80
2022-09-23T15:59:33.334Z,8.80
2022-09-23T16:02:07.922Z,2.20
2022-09-23T16:04:36.047Z,2.40
2022-09-23T16:07:05.627Z,2.10
2022-09-23T16:09:33.574Z,2.40
2022-09-23T16:12:03.265Z,2.80
2022-09-23T16:14:31.094Z,3.00
2022-09-23T16:16:59.030Z,3.20
2022-09-23T16:19:27.659Z,3.00
2022-09-23T16:21:55.581Z,4.60
2022-09-23T16:24:28.003Z,6.70
2022-09-23T16:27:00.007Z,5.10
2022-09-23T16:29:27.938Z,5.30
2022-09-23T16:31:55.892Z,5.20
2022-09-23T16:34:23.887Z,5.60
2022-09-23T16:36:51.763Z,6.10
2022-09-23T16:39:20.622Z,6.40
2022-09-23T16:41:48.491Z,16.40
2022-09-23T16:44:16.447Z,14.90
2022-09-23T16:46:44.355Z,9.20
2022-09-23T16:49:13.499Z,8.40
2022-09-23T16:51:41.386Z,6.40
2022-09-23T16:54:12.260Z,7.80
2022-09-23T16:56:44.254Z,7.80
2022-09-23T16:59:13.666Z,7.60
2022-09-23T17:01:58.308Z,6.80
2022-09-23T17:04:27.641Z,7.00
2022-09-23T17:06:56.529Z,7.80
2022-09-23T17:09:27.447Z,8.80
2022-09-23T17:11:59.819Z,9.50
2022-09-23T17:14:31.081Z,8.10
2022-09-23T17:16:59.047Z,13.20
2022-09-23T17:19:27.018Z,9.20
2022-09-23T17:21:54.917Z,10.10
2022-09-23T17:24:22.814Z,13.50
2022-09-23T17:26:53.319Z,14.60
2022-09-23T17:29:21.758Z,13.50
2022-09-23T17:31:49.971Z,12.70
2022-09-23T17:34:21.386Z,14.90
2022-09-23T17:36:49.628Z,10.60
2022-09-23T17:39:17.915Z,14.20
2022-09-23T17:41:45.747Z,15.20
2022-09-23T17:44:15.544Z,12.20
2022-09-23T17:46:43.718Z,13.80
2022-09-23T17:49:12.175Z,12.80
2022-09-23T17:51:40.538Z,11.30
2022-09-23T17:54:08.916Z,14.00
2022-09-23T17:56:36.804Z,28.60
2022-09-23T17:59:04.709Z,20.80
2022-09-23T18:01:32.968Z,12.80
2022-09-23T18:04:05.651Z,10.20
2022-09-23T18:06:35.801Z,9.20
2022-09-23T18:09:06.675Z,7.40
2022-09-23T18:11:40.092Z,7.40
2022-09-23T18:14:23.031Z,8.50
2022-09-23T18:16:53.634Z,8.80
2022-09-23T18:19:24.559Z,10.60
2022-09-23T18:21:56.381Z,13.50
2022-09-23T18:24:32.214Z,17.60
2022-09-23T18:27:02.291Z,33.30
2022-09-23T18:29:30.387Z,42.00
2022-09-23T18:31:59.443Z,79.80
2022-09-23T18:34:28.883Z,68.30
2022-09-23T18:36:57.048Z,52.60
2022-09-23T18:39:25.053Z,45.00
2022-09-23T18:41:53.098Z,36.50
2022-09-23T18:44:21.147Z,29.30
2022-09-23T18:46:49.074Z,28.50
2022-09-23T18:49:32.871Z,35.40
2022-09-23T18:54:29.052Z,225.30
2022-09-23T18:56:57.712Z,152.50
2022-09-23T18:59:29.674Z,166.90
2022-09-23T19:01:59.095Z,123.70
2022-09-23T19:04:27.359Z,84.30
2022-09-23T19:06:57.241Z,126.80
2022-09-23T19:09:25.770Z,90.40
2022-09-23T19:11:53.804Z,41.80
2022-09-23T19:14:22.347Z,19.50
2022-09-23T19:16:50.944Z,28.00
2022-09-23T19:19:19.155Z,22.70
2022-09-23T19:21:47.422Z,21.10
2022-09-23T19:24:20.562Z,59.70
2022-09-23T19:26:50.325Z,57.00
2022-09-23T19:29:22.144Z,35.60
2022-09-23T19:31:51.226Z,37.90
2022-09-23T19:34:23.907Z,32.40
2022-09-23T19:36:55.905Z,27.70
2022-09-23T19:39:26.932Z,19.80
2022-09-23T19:41:58.817Z,22.70
2022-09-23T19:44:27.345Z,36.20
2022-09-23T19:46:57.284Z,38.30
2022-09-23T19:49:26.089Z,30.00
2022-09-23T19:51:55.942Z,21.90
2022-09-23T19:54:27.351Z,14.70
2022-09-23T19:56:55.670Z,13.10
2022-09-23T19:59:23.626Z,13.00
2022-09-23T20:01:51.643Z,11.90
2022-09-23T20:04:20.267Z,14.00
2022-09-23T20:06:49.586Z,13.40
2022-09-23T20:09:17.515Z,13.90
2022-09-23T20:11:45.438Z,13.40
2022-09-23T20:14:13.765Z,12.10
2022-09-23T20:16:41.911Z,13.10
2022-09-23T20:19:12.977Z,12.50
2022-09-23T20:21:40.847Z,12.50
2022-09-23T20:24:09.754Z,12.60
2022-09-23T20:26:53.974Z,12.30
2022-09-23T20:29:22.493Z,12.30
2022-09-23T20:31:50.561Z,10.30
2022-09-23T20:34:18.557Z,10.30
2022-09-23T20:36:46.454Z,10.40
2022-09-23T20:39:14.362Z,9.40
2022-09-23T20:41:42.252Z,8.90
2022-09-23T20:44:14.255Z,10.20
2022-09-23T20:46:48.451Z,12.70
2022-09-23T20:49:17.734Z,12.50
2022-09-23T20:51:48.680Z,14.50
2022-09-23T20:54:20.397Z,14.80
2022-09-23T20:56:48.319Z,14.90
2022-09-23T20:59:18.199Z,13.70
2022-09-23T21:01:46.642Z,13.10
2022-09-23T21:04:15.072Z,13.80
2022-09-23T21:06:42.973Z,14.40
2022-09-23T21:09:10.824Z,16.00
2022-09-23T21:11:38.820Z,17.30
2022-09-23T21:14:07.086Z,15.20
2022-09-23T21:16:35.343Z,13.50
2022-09-23T21:19:03.917Z,25.10
2022-09-23T21:21:31.951Z,42.80
2022-09-23T21:24:24.462Z,19.50
2022-09-23T21:26:50.301Z,32.90
2022-09-23T21:29:18.393Z,21.00
2022-09-23T21:31:48.495Z,13.90
2022-09-23T21:34:16.905Z,16.30
2022-09-23T21:36:46.214Z,14.00
2022-09-23T21:39:14.703Z,11.80
2022-09-23T21:41:42.596Z,13.50
2022-09-23T21:44:12.075Z,13.20
2022-09-23T21:46:40.062Z,13.50
2022-09-23T21:49:09.159Z,14.10
2022-09-23T21:51:41.117Z,14.40
2022-09-23T21:54:15.920Z,13.30
2022-09-23T21:59:12.377Z,11.10
2022-09-23T22:01:44.477Z,8.30
2022-09-23T22:04:18.067Z,8.10
2022-09-23T22:06:46.831Z,6.50
2022-09-23T22:09:18.617Z,8.30
2022-09-23T22:12:03.037Z,7.10
2022-09-23T22:14:31.324Z,8.00
2022-09-23T22:17:04.457Z,8.10
2022-09-23T22:19:42.687Z,8.30
2022-09-23T22:22:17.832Z,8.40
2022-09-23T22:24:47.695Z,8.40
2022-09-23T22:27:18.886Z,8.60
2022-09-23T22:30:03.373Z,9.20
2022-09-23T22:32:52.847Z,9.10
2022-09-23T22:35:22.428Z,9.00
2022-09-23T22:37:50.428Z,8.50
2022-09-23T22:40:18.653Z,7.90
2022-09-23T22:42:46.715Z,7.70
2022-09-23T22:45:14.900Z,9.00
2022-09-23T22:47:45.544Z,8.30
2022-09-23T22:50:14.963Z,8.00
2022-09-23T22:52:43.826Z,8.60
2022-09-23T22:55:12.452Z,7.60
2022-09-23T22:57:40.736Z,9.30
2022-09-23T23:00:09.944Z,10.00
2022-09-23T23:02:37.795Z,9.70
2022-09-23T23:05:06.279Z,10.20
2022-09-23T23:07:35.073Z,9.30
2022-09-23T23:10:04.650Z,10.70
2022-09-23T23:12:33.557Z,11.40
2022-09-23T23:15:01.495Z,11.20
2022-09-23T23:17:29.912Z,9.50
2022-09-23T23:19:58.053Z,8.90
2022-09-23T23:22:28.525Z,10.00
2022-09-23T23:24:56.934Z,8.30
2022-09-23T23:27:24.830Z,9.20
2022-09-23T23:29:52.728Z,9.20
2022-09-23T23:32:20.566Z,9.90
2022-09-23T23:34:48.418Z,9.20
2022-09-23T23:37:20.630Z,9.40
2022-09-23T23:39:49.071Z,8.80
2022-09-23T23:42:17.675Z,9.30
2022-09-23T23:44:45.887Z,13.10
2022-09-23T23:47:13.813Z,11.80
2022-09-23T23:49:41.696Z,9.30
2022-09-23T23:52:09.633Z,8.70
2022-09-23T23:54:37.861Z,9.00
2022-09-23T23:57:05.913Z,9.50
2022-09-23T23:59:34.591Z,9.20
